createdAt,value
2023-01-23T00:02:52.639Z,38.57
2023-01-23T00:12:57.847Z,30.53
2023-01-23T00:23:02.345Z,37.37
2023-01-23T00:33:04.423Z,26.87
2023-01-23T00:43:06.608Z,34.47
2023-01-23T00:53:08.921Z,31.10
2023-01-23T01:03:13.944Z,26.63
2023-01-23T01:13:21.904Z,42.10
2023-01-23T01:23:27.457Z,44.53
2023-01-23T01:33:29.798Z,47.17
2023-01-23T01:43:34.045Z,49.60
2023-01-23T01:53:37.505Z,50.40
2023-01-23T02:03:40.073Z,62.03
2023-01-23T02:13:49.133Z,42.07
2023-01-23T02:24:23.330Z,46.80
2023-01-23T02:34:31.229Z,53.87
2023-01-23T02:44:36.524Z,53.67
2023-01-23T02:54:40.950Z,68.63
2023-01-23T03:04:43.166Z,63.60
2023-01-23T03:14:45.361Z,57.50
2023-01-23T03:24:47.675Z,73.67
2023-01-23T03:34:49.942Z,80.90
2023-01-23T03:44:55.749Z,69.83
2023-01-23T03:55:05.379Z,61.13
2023-01-23T04:05:08.445Z,60.57
2023-01-23T04:15:13.135Z,58.03
2023-01-23T04:25:20.154Z,60.07
2023-01-23T04:35:28.378Z,65.70
2023-01-23T04:45:33.108Z,79.83
2023-01-23T04:56:05.195Z,67.90
2023-01-23T05:06:10.871Z,70.07
2023-01-23T05:16:13.469Z,63.43
2023-01-23T05:26:47.523Z,55.33
2023-01-23T05:36:50.213Z,61.67
2023-01-23T05:46:58.324Z,49.70
2023-01-23T05:57:02.467Z,49.43
2023-01-23T06:07:25.782Z,58.80
2023-01-23T06:17:34.155Z,37.83
2023-01-23T06:27:36.384Z,43.47
2023-01-23T06:37:43.661Z,38.73
2023-01-23T06:47:49.180Z,47.97
2023-01-23T06:57:52.487Z,36.23
2023-01-23T07:07:59.612Z,46.33
2023-01-23T07:18:02.599Z,43.87
2023-01-23T07:28:06.814Z,49.37
2023-01-23T07:38:08.927Z,42.13
2023-01-23T07:48:13.279Z,46.80
2023-01-23T07:58:17.628Z,44.57
2023-01-23T08:08:19.791Z,43.60
2023-01-23T08:18:22.139Z,45.00
2023-01-23T08:28:29.267Z,46.87
2023-01-23T08:38:31.940Z,44.90
2023-01-23T08:48:36.377Z,51.97
2023-01-23T08:58:38.445Z,30.37
2023-01-23T09:08:43.576Z,50.53
2023-01-23T09:18:47.937Z,44.63
2023-01-23T09:28:50.220Z,51.60
2023-01-23T09:38:52.381Z,50.80
2023-01-23T09:49:09.644Z,47.97
2023-01-23T09:59:29.964Z,47.23
2023-01-23T10:09:43.391Z,51.77
2023-01-23T10:20:04.027Z,40.37
2023-01-23T10:30:35.290Z,45.97
2023-01-23T10:40:56.051Z,41.03
2023-01-23T10:50:58.797Z,43.43
2023-01-23T11:01:01.532Z,44.47
2023-01-23T11:11:15.858Z,47.77
2023-01-23T11:21:22.172Z,41.17
2023-01-23T11:31:27.995Z,44.57
2023-01-23T11:41:36.600Z,44.73
2023-01-23T11:52:07.545Z,38.97
2023-01-23T12:02:12.713Z,46.27
2023-01-23T12:12:40.354Z,38.67
2023-01-23T12:22:50.001Z,43.47
2023-01-23T12:32:58.017Z,34.93
2023-01-23T12:43:17.213Z,43.10
2023-01-23T12:53:31.014Z,32.63
2023-01-23T13:04:15.453Z,42.93
2023-01-23T13:14:49.220Z,43.03
2023-01-23T13:25:17.703Z,41.60
2023-01-23T13:35:38.554Z,37.90
2023-01-23T13:45:45.862Z,33.70
2023-01-23T14:27:53.396Z,31.97
2023-01-23T14:38:03.140Z,29.17
2023-01-23T14:48:16.318Z,41.93
2023-01-23T14:58:24.054Z,38.93
2023-01-23T15:08:32.432Z,35.60
2023-01-23T15:18:52.415Z,37.43
2023-01-23T15:29:02.014Z,37.67
2023-01-23T15:39:24.469Z,39.37
2023-01-23T15:49:27.080Z,35.20
2023-01-23T15:59:33.632Z,38.37
2023-01-23T16:09:41.231Z,40.03
2023-01-23T16:19:45.754Z,37.20
2023-01-23T16:29:52.698Z,40.83
2023-01-23T16:39:57.314Z,33.13
2023-01-23T16:50:00.023Z,34.73
2023-01-23T17:00:02.497Z,34.37
2023-01-23T17:10:07.821Z,35.03
2023-01-23T17:20:11.227Z,40.73
2023-01-23T17:30:19.157Z,45.83
2023-01-23T17:40:21.275Z,45.53
2023-01-23T17:50:26.938Z,45.10
2023-01-23T18:00:29.118Z,43.77
2023-01-23T18:10:34.653Z,49.83
2023-01-23T18:20:39.274Z,43.27
2023-01-23T18:31:12.159Z,47.57
2023-01-23T18:41:23.466Z,46.63
2023-01-23T18:51:54.429Z,45.63
2023-01-23T19:02:12.815Z,46.37
2023-01-23T19:12:31.090Z,42.63
2023-01-23T19:23:07.941Z,46.57
2023-01-23T19:33:17.630Z,47.50
2023-01-23T19:43:24.244Z,46.23
2023-01-23T19:53:27.019Z,48.57
2023-01-23T20:03:31.629Z,46.20
2023-01-23T20:13:36.193Z,47.17
2023-01-23T20:23:38.618Z,48.00
2023-01-23T20:33:43.015Z,52.90
2023-01-23T20:43:50.487Z,48.87
2023-01-23T20:53:52.661Z,47.27
2023-01-23T21:03:55.307Z,55.20
2023-01-23T21:13:57.487Z,50.60
2023-01-23T21:24:04.812Z,59.17
2023-01-23T21:34:10.382Z,67.53
2023-01-23T21:44:13.178Z,64.50
2023-01-23T21:54:15.633Z,61.80
2023-01-23T22:04:23.431Z,56.10
2023-01-23T22:14:28.014Z,70.23
2023-01-23T22:24:30.796Z,66.03
2023-01-23T22:34:33.144Z,55.27
2023-01-23T22:44:35.193Z,62.80
2023-01-23T22:54:37.425Z,67.70
2023-01-23T23:04:39.618Z,55.83
2023-01-23T23:14:41.756Z,65.30
2023-01-23T23:24:46.644Z,63.27
2023-01-23T23:34:55.891Z,61.03
2023-01-23T23:45:00.193Z,74.17
2023-01-23T23:55:02.403Z,46.10
